createdAt,value
2023-10-13T00:00:37.265Z,101031.25
2023-10-13T00:03:05.021Z,101034.34
2023-10-13T00:05:32.684Z,101036.47
2023-10-13T00:08:04.402Z,101033.16
2023-10-13T00:10:32.356Z,101033.84
2023-10-13T00:13:15.468Z,101021.91
2023-10-13T00:16:01.369Z,101034.47
2023-10-13T00:18:34.573Z,101030.06
2023-10-13T00:21:04.487Z,101023.44
2023-10-13T00:23:33.713Z,101016.72
2023-10-13T00:26:03.500Z,101014.81
2023-10-13T00:28:47.593Z,101017.53
2023-10-13T00:31:15.340Z,101009.16
2023-10-13T00:33:43.172Z,101004.31
2023-10-13T00:36:18.236Z,100996.97
2023-10-13T00:38:49.187Z,100995.69
2023-10-13T00:41:17.900Z,100996.78
2023-10-13T00:44:08.432Z,100999.00
2023-10-13T00:46:38.722Z,101001.97
2023-10-13T00:49:06.607Z,100984.81
2023-10-13T00:51:35.953Z,100984.00
2023-10-13T00:54:08.722Z,100985.28
2023-10-13T00:56:41.879Z,100992.84
2023-10-13T00:59:11.009Z,100979.03
2023-10-13T01:01:37.687Z,100971.56
2023-10-13T01:04:09.554Z,100968.03
2023-10-13T01:06:38.912Z,100966.34
2023-10-13T01:09:19.455Z,100961.13
2023-10-13T01:11:49.559Z,100953.59
2023-10-13T01:14:18.405Z,100955.25
2023-10-13T01:16:46.947Z,100945.22
2023-10-13T01:19:25.993Z,100949.34
2023-10-13T01:22:02.915Z,100952.91
2023-10-13T01:24:32.548Z,100942.91
2023-10-13T01:27:08.359Z,100938.78
2023-10-13T01:29:35.161Z,100938.63
2023-10-13T01:32:01.754Z,100929.78
2023-10-13T01:34:28.282Z,100928.94
2023-10-13T01:36:56.183Z,100923.69
2023-10-13T01:39:27.758Z,100917.41
2023-10-13T01:41:57.813Z,100919.66
2023-10-13T01:44:31.755Z,100914.03
2023-10-13T01:47:07.092Z,100919.22
2023-10-13T01:49:43.145Z,100911.59
2023-10-13T01:52:16.645Z,100907.56
2023-10-13T01:54:52.394Z,100907.41
2023-10-13T01:57:19.480Z,100901.78
2023-10-13T01:59:48.986Z,100901.19
2023-10-13T02:02:16.785Z,100902.84
2023-10-13T02:04:50.162Z,100898.59
2023-10-13T02:07:17.535Z,100898.59
2023-10-13T02:09:44.156Z,100886.47
2023-10-13T02:12:11.560Z,100884.78
2023-10-13T02:14:39.202Z,100882.69
2023-10-13T02:17:17.343Z,100870.97
2023-10-13T02:19:47.986Z,100869.91
2023-10-13T02:22:33.015Z,100877.50
2023-10-13T02:25:03.000Z,100866.63
2023-10-13T02:27:29.795Z,100864.47
2023-10-13T02:30:02.231Z,100861.38
2023-10-13T02:32:31.187Z,100847.34
2023-10-13T02:35:06.826Z,100843.34
2023-10-13T02:37:33.455Z,100840.63
2023-10-13T02:40:01.374Z,100836.47
2023-10-13T02:42:27.826Z,100833.13
2023-10-13T02:44:57.040Z,100826.66
2023-10-13T02:47:25.539Z,100814.97
2023-10-13T02:49:52.058Z,100810.94
2023-10-13T02:52:21.783Z,100805.03
2023-10-13T02:54:48.433Z,100804.78
2023-10-13T02:57:16.540Z,100799.34
2023-10-13T02:59:57.628Z,100798.31
2023-10-13T03:02:29.341Z,100788.97
2023-10-13T03:05:10.196Z,100771.22
2023-10-13T03:07:37.675Z,100777.50
2023-10-13T03:10:11.377Z,100775.59
2023-10-13T03:12:39.078Z,100756.09
2023-10-13T03:15:24.294Z,100752.31
2023-10-13T03:17:50.901Z,100747.34
2023-10-13T03:20:25.889Z,100729.38
2023-10-13T03:22:54.224Z,100728.31
2023-10-13T03:25:30.712Z,100720.16
2023-10-13T03:28:00.795Z,100718.28
2023-10-13T03:30:36.558Z,100718.28
2023-10-13T03:33:08.771Z,100715.22
2023-10-13T03:35:39.321Z,100712.69
2023-10-13T03:38:18.675Z,100693.66
2023-10-13T03:40:49.764Z,100695.81
2023-10-13T03:43:22.858Z,100683.50
2023-10-13T03:46:01.528Z,100668.28
2023-10-13T03:48:28.387Z,100657.03
2023-10-13T03:51:05.149Z,100657.03
2023-10-13T03:53:34.878Z,100645.59
2023-10-13T03:56:28.387Z,100633.88
2023-10-13T03:59:02.109Z,100629.53
2023-10-13T04:01:47.270Z,100629.53
2023-10-13T04:04:16.370Z,100624.91
2023-10-13T04:06:46.790Z,100619.47
2023-10-13T04:09:33.146Z,100621.53
2023-10-13T04:12:05.103Z,100612.75
2023-10-13T04:14:52.442Z,100612.88
2023-10-13T04:17:27.516Z,100612.88
2023-10-13T04:20:07.990Z,100608.25
2023-10-13T04:22:50.071Z,100609.94
2023-10-13T04:25:36.548Z,100607.44
2023-10-13T04:28:28.013Z,100594.22
2023-10-13T04:30:57.487Z,100577.56
2023-10-13T04:33:35.910Z,100579.09
2023-10-13T04:36:17.529Z,100559.50
2023-10-13T04:38:57.505Z,100550.78
2023-10-13T04:41:43.036Z,100549.13
2023-10-13T04:44:30.901Z,100552.66
2023-10-13T04:47:01.798Z,100558.91
2023-10-13T04:49:30.893Z,100540.75
2023-10-13T04:52:02.212Z,100538.50
2023-10-13T04:54:49.655Z,100532.00
2023-10-13T04:57:40.170Z,100534.47
2023-10-13T05:00:11.178Z,100518.28
2023-10-13T05:02:39.782Z,100516.88
2023-10-13T05:05:14.945Z,100502.81
2023-10-13T05:08:00.768Z,100497.72
2023-10-13T05:10:45.737Z,100499.38
2023-10-13T05:13:30.999Z,100506.53
2023-10-13T05:16:15.883Z,100504.44
2023-10-13T05:19:01.229Z,100500.88
2023-10-13T05:21:46.382Z,100497.34
2023-10-13T05:24:31.328Z,100517.53
2023-10-13T05:27:16.555Z,100517.03
2023-10-13T05:30:03.065Z,100507.09
2023-10-13T05:32:48.565Z,100489.63
2023-10-13T05:35:34.180Z,100487.13
2023-10-13T05:38:20.443Z,100493.31
2023-10-13T05:41:26.471Z,100500.16
2023-10-13T05:44:11.779Z,100491.28
2023-10-13T05:46:38.706Z,100502.22
2023-10-13T05:49:13.012Z,100492.53
2023-10-13T05:51:45.279Z,100486.53
2023-10-13T05:54:15.068Z,100478.38
2023-10-13T05:57:03.870Z,100470.59
2023-10-13T05:59:50.961Z,100459.34
2023-10-13T06:02:37.918Z,100449.28
2023-10-13T06:05:31.672Z,100460.41
2023-10-13T06:08:18.213Z,100458.41
2023-10-13T06:11:04.867Z,100458.75
2023-10-13T06:13:49.955Z,100448.59
2023-10-13T06:16:36.563Z,100452.16
2023-10-13T06:19:22.663Z,100449.44
2023-10-13T06:22:07.690Z,100435.41
2023-10-13T06:24:52.914Z,100441.19
2023-10-13T06:27:37.618Z,100441.78
2023-10-13T06:30:05.820Z,100441.53
2023-10-13T06:32:34.286Z,100433.88
2023-10-13T06:35:08.652Z,100440.72
2023-10-13T06:37:35.586Z,100433.38
2023-10-13T06:40:07.438Z,100426.88
2023-10-13T06:42:43.443Z,100433.63
2023-10-13T06:45:10.924Z,100427.94
2023-10-13T06:47:46.318Z,100417.91
2023-10-13T06:50:20.509Z,100421.59
2023-10-13T06:52:51.059Z,100420.53
2023-10-13T06:55:28.358Z,100418.63
2023-10-13T06:58:03.644Z,100406.34
2023-10-13T07:00:31.175Z,100403.16
2023-10-13T07:03:07.501Z,100398.53
2023-10-13T07:05:42.550Z,100395.59
2023-10-13T07:08:10.042Z,100390.16
2023-10-13T07:10:49.554Z,100395.06
2023-10-13T07:13:18.068Z,100385.88
2023-10-13T07:15:47.333Z,100390.31
2023-10-13T07:18:20.052Z,100385.25
2023-10-13T07:20:46.652Z,100378.00
2023-10-13T07:23:21.117Z,100357.91
2023-10-13T07:26:04.000Z,100375.38
2023-10-13T07:28:44.858Z,100378.66
2023-10-13T07:31:20.187Z,100359.13
2023-10-13T07:33:46.707Z,100359.69
2023-10-13T07:36:19.200Z,100365.81
2023-10-13T07:38:58.857Z,100356.00
2023-10-13T07:41:33.960Z,100353.03
2023-10-13T07:44:00.627Z,100357.41
2023-10-13T07:46:32.461Z,100356.06
2023-10-13T07:49:10.040Z,100343.28
2023-10-13T07:51:45.565Z,100348.75
2023-10-13T07:54:22.717Z,100339.28
2023-10-13T07:56:49.622Z,100339.59
2023-10-13T07:59:16.143Z,100333.97
2023-10-13T08:01:44.250Z,100328.28
2023-10-13T08:04:15.482Z,100337.59
2023-10-13T08:06:44.149Z,100332.38
2023-10-13T08:09:31.400Z,100330.25
2023-10-13T08:11:58.071Z,100309.63
2023-10-13T08:14:39.463Z,100311.88
2023-10-13T08:17:11.916Z,100321.66
2023-10-13T08:19:42.912Z,100297.44
2023-10-13T08:22:19.726Z,100316.97
2023-10-13T08:24:47.698Z,100310.19
2023-10-13T08:27:15.769Z,100308.50
2023-10-13T08:29:55.473Z,100315.50
2023-10-13T08:32:43.174Z,100310.34
2023-10-13T08:35:09.993Z,100309.06
2023-10-13T08:37:56.917Z,100281.34
2023-10-13T08:40:44.520Z,100278.63
2023-10-13T08:43:12.528Z,100276.19
2023-10-13T08:45:41.383Z,100284.50
2023-10-13T08:48:14.392Z,100281.13
2023-10-13T08:50:52.856Z,100270.25
2023-10-13T08:53:33.394Z,100269.97
2023-10-13T08:56:07.522Z,100269.53
2023-10-13T08:58:55.275Z,100263.06
2023-10-13T09:01:49.602Z,100268.22
2023-10-13T09:04:21.173Z,100255.34
2023-10-13T09:07:13.299Z,100256.75
2023-10-13T09:09:55.095Z,100243.41
2023-10-13T09:12:34.130Z,100245.09
2023-10-13T09:15:13.466Z,100241.59
2023-10-13T09:17:52.225Z,100242.13
2023-10-13T09:20:40.754Z,100230.50
2023-10-13T09:23:29.882Z,100232.56
2023-10-13T09:26:10.189Z,100235.94
2023-10-13T09:28:38.362Z,100218.25
2023-10-13T09:31:10.558Z,100227.88
2023-10-13T09:33:37.334Z,100230.91
2023-10-13T09:36:05.997Z,100216.75
2023-10-13T09:38:41.191Z,100218.69
2023-10-13T09:41:27.037Z,100211.38
2023-10-13T09:43:58.959Z,100208.94
2023-10-13T09:46:29.870Z,100200.28
2023-10-13T09:49:07.579Z,100204.00
2023-10-13T09:51:34.454Z,100206.22
2023-10-13T09:54:34.969Z,100183.72
2023-10-13T09:57:13.496Z,100169.03
2023-10-13T09:59:53.398Z,100181.63
2023-10-13T10:02:27.499Z,100171.81
2023-10-13T10:05:12.444Z,100190.13
2023-10-13T10:07:40.739Z,100188.69
2023-10-13T10:10:09.875Z,100184.38
2023-10-13T10:12:48.619Z,100183.06
2023-10-13T10:15:35.426Z,100178.38
2023-10-13T10:18:04.804Z,100183.69
2023-10-13T10:20:46.457Z,100174.44
2023-10-13T10:23:25.755Z,100178.75
2023-10-13T10:25:52.813Z,100167.97
2023-10-13T10:28:20.931Z,100160.66
2023-10-13T10:30:47.706Z,100161.53
2023-10-13T10:33:16.791Z,100161.06
2023-10-13T10:35:44.928Z,100150.44
2023-10-13T10:38:25.890Z,100161.69
2023-10-13T10:40:59.684Z,100153.25
2023-10-13T10:43:43.120Z,100157.38
2023-10-13T10:46:12.747Z,100152.44
2023-10-13T10:48:43.985Z,100146.53
2023-10-13T10:51:26.082Z,100147.56
2023-10-13T10:53:54.431Z,100140.22
2023-10-13T10:56:26.902Z,100120.09
2023-10-13T10:58:58.752Z,100129.94
2023-10-13T11:01:39.484Z,100116.03
2023-10-13T11:04:23.715Z,100127.72
2023-10-13T11:06:58.973Z,100147.03
2023-10-13T11:09:33.235Z,100144.09
2023-10-13T11:12:16.670Z,100118.38
2023-10-13T11:14:48.162Z,100107.78
2023-10-13T11:17:34.463Z,100106.41
2023-10-13T11:20:19.515Z,100102.78
2023-10-13T11:22:49.644Z,100096.28
2023-10-13T11:25:31.386Z,100085.09
2023-10-13T11:28:07.725Z,100088.13
2023-10-13T11:30:37.082Z,100095.47
2023-10-13T11:33:09.083Z,100092.22
2023-10-13T11:35:55.038Z,100109.69
2023-10-13T11:38:28.104Z,100110.22
2023-10-13T11:41:08.506Z,100102.38
2023-10-13T11:43:57.091Z,100103.75
2023-10-13T11:46:36.676Z,100094.16
2023-10-13T11:49:14.477Z,100096.00
2023-10-13T11:51:45.828Z,100103.63
2023-10-13T11:54:14.182Z,100091.34
2023-10-13T11:56:40.684Z,100098.22
2023-10-13T11:59:07.205Z,100086.03
2023-10-13T12:01:52.308Z,100093.66
2023-10-13T12:04:34.315Z,100087.38
2023-10-13T12:07:20.784Z,100084.91
2023-10-13T12:09:57.587Z,100098.53
2023-10-13T12:12:24.986Z,100101.22
2023-10-13T12:14:58.027Z,100095.81
2023-10-13T12:17:32.824Z,100101.03
2023-10-13T12:20:00.333Z,100086.09
2023-10-13T12:22:30.016Z,100080.63
2023-10-13T12:24:57.398Z,100074.06
2023-10-13T12:27:24.650Z,100080.34
2023-10-13T12:29:52.873Z,100077.59
2023-10-13T12:32:32.086Z,100078.41
2023-10-13T12:35:01.517Z,100076.78
2023-10-13T12:37:45.072Z,100069.16
2023-10-13T12:40:34.814Z,100067.47
2023-10-13T12:43:20.643Z,100068.56
2023-10-13T12:46:08.107Z,100075.97
2023-10-13T12:48:54.518Z,100051.97
2023-10-13T12:51:22.180Z,100062.59
2023-10-13T12:53:49.786Z,100054.41
2023-10-13T12:56:16.985Z,100066.41
2023-10-13T12:58:52.912Z,100066.72
2023-10-13T13:01:21.742Z,100072.69
2023-10-13T13:03:50.392Z,100086.59
2023-10-13T13:06:27.284Z,100070.13
2023-10-13T13:08:54.316Z,100055.75
2023-10-13T13:11:22.428Z,100047.81
2023-10-13T13:13:50.777Z,100042.34
2023-10-13T13:16:25.468Z,100047.03
2023-10-13T13:18:52.289Z,100057.69
2023-10-13T13:21:24.180Z,100058.22
2023-10-13T13:23:51.626Z,100061.44
2023-10-13T13:26:18.818Z,100063.59
2023-10-13T13:28:46.557Z,100063.34
2023-10-13T13:31:16.284Z,100062.25
2023-10-13T13:33:45.566Z,100063.28
2023-10-13T13:36:17.428Z,100058.13
2023-10-13T13:38:49.872Z,100051.56
2023-10-13T13:41:18.043Z,100039.03
2023-10-13T13:43:55.955Z,100044.50
2023-10-13T13:46:34.136Z,100040.66
2023-10-13T13:49:01.966Z,100025.13
2023-10-13T13:51:29.720Z,100034.94
2023-10-13T13:53:57.292Z,100040.66
2023-10-13T13:56:28.400Z,100052.09
2023-10-13T13:58:56.890Z,100046.13
2023-10-13T14:01:23.623Z,100043.09
2023-10-13T14:03:53.697Z,100047.75
2023-10-13T14:06:25.629Z,100058.09
2023-10-13T14:08:56.122Z,100043.91
2023-10-13T14:11:40.650Z,100057.00
2023-10-13T14:14:14.829Z,100070.63
2023-10-13T14:16:46.040Z,100068.13
2023-10-13T14:19:13.114Z,100072.78
2023-10-13T14:21:39.801Z,100085.59
2023-10-13T14:24:17.754Z,100090.25
2023-10-13T14:26:44.745Z,100085.78
2023-10-13T14:29:15.137Z,100102.91
2023-10-13T14:31:42.478Z,100114.13
2023-10-13T14:34:09.634Z,100108.38
2023-10-13T14:36:36.243Z,100109.41
2023-10-13T14:39:04.057Z,100098.25
2023-10-13T14:41:32.127Z,100085.69
2023-10-13T14:44:06.134Z,100080.25
2023-10-13T14:46:36.768Z,100094.97
2023-10-13T14:49:03.861Z,100093.06
2023-10-13T14:51:30.506Z,100097.91
2023-10-13T14:53:57.328Z,100102.78
2023-10-13T14:56:27.371Z,100099.25
2023-10-13T14:58:55.107Z,100080.69
2023-10-13T15:01:23.380Z,100093.50
2023-10-13T15:03:52.073Z,100093.22
2023-10-13T15:06:19.697Z,100089.97
2023-10-13T15:08:50.062Z,100089.91
2023-10-13T15:11:19.374Z,100072.22
2023-10-13T15:13:49.679Z,100058.63
2023-10-13T15:16:20.564Z,100045.31
2023-10-13T15:18:48.271Z,100057.53
2023-10-13T15:21:25.169Z,100043.34
2023-10-13T15:23:52.640Z,100039.75
2023-10-13T15:26:22.167Z,100040.34
2023-10-13T15:28:49.822Z,100022.38
2023-10-13T15:31:35.343Z,100016.56
2023-10-13T15:34:13.834Z,100015.50
2023-10-13T15:36:41.993Z,100011.97
2023-10-13T15:39:11.431Z,100007.38
2023-10-13T15:41:41.628Z,100015.53
2023-10-13T15:44:12.362Z,100008.97
2023-10-13T15:47:53.213Z,99999.47
2023-10-13T15:49:27.293Z,100005.72
2023-10-13T15:51:53.806Z,99999.47
2023-10-13T15:54:22.062Z,100005.19
2023-10-13T15:56:49.900Z,100001.09
2023-10-13T15:59:16.647Z,99996.78
2023-10-13T16:01:43.434Z,100000.59
2023-10-13T16:04:14.906Z,100005.19
2023-10-13T16:06:43.002Z,99974.41
2023-10-13T16:09:15.014Z,99967.31
2023-10-13T16:11:46.741Z,99964.09
2023-10-13T16:14:16.809Z,99955.41
2023-10-13T16:16:48.035Z,99955.13
2023-10-13T16:19:18.829Z,99958.13
2023-10-13T16:21:47.090Z,99952.13
2023-10-13T16:24:18.271Z,99955.66
2023-10-13T16:26:46.439Z,99962.47
2023-10-13T16:29:12.929Z,99966.25
2023-10-13T16:31:39.537Z,99972.25
2023-10-13T16:34:06.189Z,99970.06
2023-10-13T16:36:32.709Z,99964.34
2023-10-13T16:38:59.399Z,99962.47
2023-10-13T16:41:27.826Z,99968.44
2023-10-13T16:43:54.600Z,99946.94
2023-10-13T16:46:21.375Z,99946.94
2023-10-13T16:48:50.871Z,99948.88
2023-10-13T16:51:17.479Z,99948.31
2023-10-13T16:53:47.646Z,99965.72
2023-10-13T16:56:14.682Z,99962.47
2023-10-13T16:58:45.143Z,99961.69
2023-10-13T17:01:16.865Z,99956.25
2023-10-13T17:03:47.671Z,99950.00
2023-10-13T17:06:14.958Z,99945.28
2023-10-13T17:08:41.499Z,99942.06
2023-10-13T17:11:18.492Z,99931.22
2023-10-13T17:13:49.572Z,99941.81
2023-10-13T17:16:22.502Z,99940.72
2023-10-13T17:18:51.616Z,99932.84
2023-10-13T17:21:20.291Z,99937.19
2023-10-13T17:23:51.301Z,99940.72
2023-10-13T17:26:19.112Z,99943.75
2023-10-13T17:28:45.871Z,99931.25
2023-10-13T17:31:14.396Z,99938.06
2023-10-13T17:33:41.038Z,99933.72
2023-10-13T17:36:11.819Z,99934.25
2023-10-13T17:38:39.800Z,99932.63
2023-10-13T17:41:07.088Z,99940.00
2023-10-13T17:43:37.483Z,99938.88
2023-10-13T17:46:12.489Z,99943.50
2023-10-13T17:48:40.245Z,99947.78
2023-10-13T17:51:07.322Z,99937.72
2023-10-13T17:53:36.959Z,99934.75
2023-10-13T17:56:06.750Z,99921.66
2023-10-13T17:58:33.227Z,99921.66
2023-10-13T18:01:05.933Z,99920.03
2023-10-13T18:03:34.691Z,99914.59
2023-10-13T18:06:01.875Z,99913.19
2023-10-13T18:08:33.026Z,99916.19
2023-10-13T18:11:00.142Z,99918.31
2023-10-13T18:13:26.657Z,99894.91
2023-10-13T18:15:53.289Z,99902.78
2023-10-13T18:18:21.690Z,99900.88
2023-10-13T18:20:48.416Z,99896.53
2023-10-13T18:23:15.584Z,99898.16
2023-10-13T18:25:43.853Z,99903.38
2023-10-13T18:28:11.548Z,99895.16
2023-10-13T18:30:41.317Z,99881.84
2023-10-13T18:33:08.313Z,99881.00
2023-10-13T18:35:38.623Z,99871.72
2023-10-13T18:38:06.672Z,99872.28
2023-10-13T18:40:37.190Z,99870.34
2023-10-13T18:43:05.266Z,99856.75
2023-10-13T18:45:32.649Z,99863.56
2023-10-13T18:47:59.439Z,99851.59
2023-10-13T18:50:25.987Z,99856.78
2023-10-13T18:52:53.699Z,99847.53
2023-10-13T18:55:20.188Z,99854.59
2023-10-13T18:57:46.684Z,99844.53
2023-10-13T19:00:23.464Z,99854.31
2023-10-13T19:02:53.493Z,99866.50
2023-10-13T19:05:21.528Z,99864.34
2023-10-13T19:07:50.014Z,99874.88
2023-10-13T19:10:16.669Z,99872.97
2023-10-13T19:12:44.822Z,99871.94
2023-10-13T19:15:14.352Z,99867.81
2023-10-13T19:17:41.818Z,99875.44
2023-10-13T19:20:09.503Z,99857.50
2023-10-13T19:22:35.903Z,99862.94
2023-10-13T19:25:02.417Z,99857.44
2023-10-13T19:27:28.891Z,99856.91
2023-10-13T19:29:55.715Z,99846.31
2023-10-13T19:32:22.966Z,99842.22
2023-10-13T19:34:49.374Z,99848.47
2023-10-13T19:37:16.228Z,99831.38
2023-10-13T19:39:43.534Z,99814.50
2023-10-13T19:42:10.099Z,99812.34
2023-10-13T19:44:36.551Z,99811.84
2023-10-13T19:47:03.069Z,99806.63
2023-10-13T19:49:29.628Z,99799.06
2023-10-13T19:51:59.045Z,99812.66
2023-10-13T19:54:25.836Z,99796.06
2023-10-13T19:56:55.131Z,99803.69
2023-10-13T19:59:21.769Z,99807.22
2023-10-13T20:01:50.155Z,99790.06
2023-10-13T20:04:19.940Z,99790.56
2023-10-13T20:06:46.516Z,99792.19
2023-10-13T20:09:28.221Z,99807.69
2023-10-13T20:11:54.908Z,99785.94
2023-10-13T20:14:22.074Z,99782.38
2023-10-13T20:16:51.663Z,99782.13
2023-10-13T20:19:18.480Z,99781.31
2023-10-13T20:21:48.012Z,99786.75
2023-10-13T20:24:17.684Z,99786.19
2023-10-13T20:26:44.233Z,99775.06
2023-10-13T20:29:20.824Z,99775.38
2023-10-13T20:31:49.400Z,99762.78
2023-10-13T20:34:20.404Z,99769.31
2023-10-13T20:36:47.295Z,99772.84
2023-10-13T20:39:25.896Z,99773.38
2023-10-13T20:41:53.502Z,99747.78
2023-10-13T20:44:26.532Z,99755.13
2023-10-13T20:46:54.263Z,99766.88
2023-10-13T20:49:22.980Z,99755.44
2023-10-13T20:51:50.260Z,99756.53
2023-10-13T20:54:17.917Z,99751.34
2023-10-13T20:56:46.894Z,99764.91
2023-10-13T20:59:16.018Z,99773.38
2023-10-13T21:01:46.069Z,99780.72
2023-10-13T21:04:13.039Z,99769.25
2023-10-13T21:06:45.481Z,99777.91
2023-10-13T21:09:14.116Z,99773.28
2023-10-13T21:11:41.870Z,99769.75
2023-10-13T21:14:08.429Z,99829.09
2023-10-13T21:16:34.960Z,99860.31
2023-10-13T21:19:01.913Z,99851.13
2023-10-13T21:21:32.198Z,99871.91
2023-10-13T21:23:58.648Z,99882.25
2023-10-13T21:26:29.895Z,99890.16
2023-10-13T21:28:57.219Z,99898.41
2023-10-13T21:31:24.421Z,99895.88
2023-10-13T21:33:55.276Z,99903.38
2023-10-13T21:36:26.834Z,99919.94
2023-10-13T21:38:55.836Z,99909.06
2023-10-13T21:41:23.738Z,99897.91
2023-10-13T21:43:55.576Z,99899.16
2023-10-13T21:46:24.031Z,99894.66
2023-10-13T21:48:53.651Z,99903.06
2023-10-13T21:51:22.146Z,99902.09
2023-10-13T21:53:49.065Z,99906.97
2023-10-13T21:56:17.370Z,99911.66
2023-10-13T21:58:44.362Z,99927.22
2023-10-13T22:01:23.150Z,99940.56
2023-10-13T22:03:51.356Z,99929.72
2023-10-13T22:06:22.163Z,99921.84
2023-10-13T22:08:51.312Z,99939.75
2023-10-13T22:11:18.227Z,99946.00
2023-10-13T22:13:49.420Z,99934.91
2023-10-13T22:16:17.884Z,99939.25
2023-10-13T22:18:45.989Z,99940.06
2023-10-13T22:21:14.480Z,99946.06
2023-10-13T22:23:42.260Z,99955.34
2023-10-13T22:26:13.972Z,99958.06
2023-10-13T22:28:45.946Z,99982.25
2023-10-13T22:31:14.382Z,99990.13
2023-10-13T22:33:41.811Z,99991.22
2023-10-13T22:36:09.098Z,99979.88
2023-10-13T22:38:42.674Z,99976.50
2023-10-13T22:41:12.958Z,99981.63
2023-10-13T22:43:42.412Z,100005.50
2023-10-13T22:46:09.058Z,100006.53
2023-10-13T22:48:35.766Z,99995.94
2023-10-13T22:51:10.073Z,100006.16
2023-10-13T22:53:37.696Z,100006.97
2023-10-13T22:56:05.901Z,100006.34
2023-10-13T22:58:34.135Z,100008.00
2023-10-13T23:01:00.678Z,100020.91
2023-10-13T23:03:36.592Z,100027.25
2023-10-13T23:06:12.980Z,100031.97
2023-10-13T23:08:39.905Z,100048.19
2023-10-13T23:11:19.387Z,100044.31
2023-10-13T23:13:56.358Z,100052.94
2023-10-13T23:16:28.057Z,100058.06
2023-10-13T23:18:58.155Z,100067.22
2023-10-13T23:21:28.487Z,100066.50
2023-10-13T23:23:55.636Z,100070.69
2023-10-13T23:26:23.459Z,100079.28
2023-10-13T23:28:54.486Z,100080.47
2023-10-13T23:31:24.199Z,100092.13
2023-10-13T23:33:51.373Z,100099.00
2023-10-13T23:36:17.907Z,100090.88
2023-10-13T23:39:00.640Z,100104.28
2023-10-13T23:41:32.014Z,100110.28
2023-10-13T23:44:14.226Z,100105.91
2023-10-13T23:46:47.637Z,100103.69
2023-10-13T23:49:19.380Z,100103.69
2023-10-13T23:52:02.097Z,100117.00
2023-10-13T23:54:31.846Z,100116.50
2023-10-13T23:56:58.471Z,100115.69
2023-10-13T23:59:28.454Z,100129.03
